sensor_id;sensor_type;location;lat;lon;timestamp;pressure;altitude;pressure_sealevel;temperature;humidity
79538;BME280;68989;52.032;5.152;2023-07-13T00:02:01;101460.95;;;26.02;39.84
79538;BME280;68989;52.032;5.152;2023-07-13T00:04:28;101459.72;;;25.99;39.81
79538;BME280;68989;52.032;5.152;2023-07-13T00:06:56;101463.45;;;25.97;39.88
79538;BME280;68989;52.032;5.152;2023-07-13T00:09:23;101456.99;;;25.94;39.86
79538;BME280;68989;52.032;5.152;2023-07-13T00:11:56;101456.67;;;25.92;39.89
79538;BME280;68989;52.032;5.152;2023-07-13T00:14:25;101452.36;;;25.90;39.93
79538;BME280;68989;52.032;5.152;2023-07-13T00:16:53;101450.48;;;25.87;39.96
79538;BME280;68989;52.032;5.152;2023-07-13T00:19:20;101451.84;;;25.85;39.95
79538;BME280;68989;52.032;5.152;2023-07-13T00:21:48;101449.45;;;25.83;39.99
79538;BME280;68989;52.032;5.152;2023-07-13T00:24:17;101451.71;;;25.80;40.01
79538;BME280;68989;52.032;5.152;2023-07-13T00:26:44;101456.32;;;25.78;40.04
79538;BME280;68989;52.032;5.152;2023-07-13T00:29:12;101456.47;;;25.75;40.07
79538;BME280;68989;52.032;5.152;2023-07-13T00:31:40;101455.90;;;25.73;40.09
79538;BME280;68989;52.032;5.152;2023-07-13T00:34:07;101459.04;;;25.71;40.14
79538;BME280;68989;52.032;5.152;2023-07-13T00:36:35;101453.55;;;25.68;40.19
79538;BME280;68989;52.032;5.152;2023-07-13T00:39:05;101453.77;;;25.66;40.25
79538;BME280;68989;52.032;5.152;2023-07-13T00:41:32;101454.46;;;25.64;40.28
79538;BME280;68989;52.032;5.152;2023-07-13T00:44:00;101452.58;;;25.61;40.34
79538;BME280;68989;52.032;5.152;2023-07-13T00:46:29;101455.20;;;25.59;40.34
79538;BME280;68989;52.032;5.152;2023-07-13T00:48:59;101453.45;;;25.58;40.44
79538;BME280;68989;52.032;5.152;2023-07-13T00:51:32;101442.40;;;25.57;40.47
79538;BME280;68989;52.032;5.152;2023-07-13T00:54:05;101445.52;;;25.56;40.46
79538;BME280;68989;52.032;5.152;2023-07-13T00:56:34;101452.93;;;25.54;40.47
79538;BME280;68989;52.032;5.152;2023-07-13T00:59:04;101449.40;;;25.52;40.55
79538;BME280;68989;52.032;5.152;2023-07-13T01:01:33;101446.77;;;25.50;40.58
79538;BME280;68989;52.032;5.152;2023-07-13T01:04:00;101450.42;;;25.46;40.63
79538;BME280;68989;52.032;5.152;2023-07-13T01:06:28;101456.81;;;25.45;40.65
79538;BME280;68989;52.032;5.152;2023-07-13T01:08:56;101463.78;;;25.42;40.74
79538;BME280;68989;52.032;5.152;2023-07-13T01:11:24;101463.16;;;25.41;40.78
79538;BME280;68989;52.032;5.152;2023-07-13T01:13:52;101463.11;;;25.39;40.88
79538;BME280;68989;52.032;5.152;2023-07-13T01:16:24;101464.99;;;25.38;40.94
79538;BME280;68989;52.032;5.152;2023-07-13T01:18:51;101466.11;;;25.37;41.02
79538;BME280;68989;52.032;5.152;2023-07-13T01:21:18;101466.15;;;25.36;41.05
79538;BME280;68989;52.032;5.152;2023-07-13T01:23:46;101465.64;;;25.35;41.04
79538;BME280;68989;52.032;5.152;2023-07-13T01:26:13;101467.23;;;25.34;41.00
79538;BME280;68989;52.032;5.152;2023-07-13T01:28:41;101466.49;;;25.33;41.09
79538;BME280;68989;52.032;5.152;2023-07-13T01:31:09;101466.71;;;25.31;41.10
79538;BME280;68989;52.032;5.152;2023-07-13T01:33:37;101463.85;;;25.29;41.13
79538;BME280;68989;52.032;5.152;2023-07-13T01:36:05;101464.25;;;25.27;41.19
79538;BME280;68989;52.032;5.152;2023-07-13T01:38:33;101467.88;;;25.25;41.22
79538;BME280;68989;52.032;5.152;2023-07-13T01:41:00;101471.83;;;25.23;41.27
79538;BME280;68989;52.032;5.152;2023-07-13T01:43:28;101469.82;;;25.20;41.32
79538;BME280;68989;52.032;5.152;2023-07-13T01:45:55;101471.75;;;25.17;41.45
79538;BME280;68989;52.032;5.152;2023-07-13T01:48:23;101476.83;;;25.15;41.54
79538;BME280;68989;52.032;5.152;2023-07-13T01:50:50;101477.44;;;25.13;41.63
79538;BME280;68989;52.032;5.152;2023-07-13T01:53:17;101478.56;;;25.10;41.68
79538;BME280;68989;52.032;5.152;2023-07-13T01:55:45;101478.20;;;25.08;41.62
79538;BME280;68989;52.032;5.152;2023-07-13T01:58:12;101478.09;;;25.06;41.72
79538;BME280;68989;52.032;5.152;2023-07-13T02:00:39;101482.45;;;25.03;41.79
79538;BME280;68989;52.032;5.152;2023-07-13T02:03:06;101479.59;;;25.01;41.86
79538;BME280;68989;52.032;5.152;2023-07-13T02:05:32;101480.75;;;24.99;41.90
79538;BME280;68989;52.032;5.152;2023-07-13T02:08:00;101478.66;;;24.96;41.97
79538;BME280;68989;52.032;5.152;2023-07-13T02:10:27;101480.42;;;24.94;42.03
79538;BME280;68989;52.032;5.152;2023-07-13T02:12:54;101483.83;;;24.92;42.15
79538;BME280;68989;52.032;5.152;2023-07-13T02:15:22;101488.08;;;24.90;42.28
79538;BME280;68989;52.032;5.152;2023-07-13T02:17:48;101489.01;;;24.88;42.39
79538;BME280;68989;52.032;5.152;2023-07-13T02:20:15;101489.80;;;24.86;42.42
79538;BME280;68989;52.032;5.152;2023-07-13T02:22:43;101487.00;;;24.84;42.47
79538;BME280;68989;52.032;5.152;2023-07-13T02:25:10;101485.82;;;24.83;42.51
79538;BME280;68989;52.032;5.152;2023-07-13T02:27:37;101489.19;;;24.82;42.54
79538;BME280;68989;52.032;5.152;2023-07-13T02:30:05;101490.24;;;24.80;42.60
79538;BME280;68989;52.032;5.152;2023-07-13T02:32:33;101490.46;;;24.79;42.70
79538;BME280;68989;52.032;5.152;2023-07-13T02:35:00;101491.72;;;24.76;42.72
79538;BME280;68989;52.032;5.152;2023-07-13T02:37:28;101491.70;;;24.74;42.75
79538;BME280;68989;52.032;5.152;2023-07-13T02:39:56;101495.87;;;24.72;42.87
79538;BME280;68989;52.032;5.152;2023-07-13T02:42:23;101497.50;;;24.69;42.91
79538;BME280;68989;52.032;5.152;2023-07-13T02:44:50;101492.94;;;24.67;42.89
79538;BME280;68989;52.032;5.152;2023-07-13T02:47:18;101489.57;;;24.66;42.94
79538;BME280;68989;52.032;5.152;2023-07-13T02:49:44;101488.06;;;24.64;42.96
79538;BME280;68989;52.032;5.152;2023-07-13T02:52:11;101487.52;;;24.62;43.00
79538;BME280;68989;52.032;5.152;2023-07-13T02:54:39;101488.12;;;24.60;43.03
79538;BME280;68989;52.032;5.152;2023-07-13T02:57:06;101490.30;;;24.58;43.07
79538;BME280;68989;52.032;5.152;2023-07-13T02:59:33;101488.60;;;24.56;43.06
79538;BME280;68989;52.032;5.152;2023-07-13T03:02:01;101491.09;;;24.54;43.11
79538;BME280;68989;52.032;5.152;2023-07-13T03:04:28;101493.30;;;24.53;43.11
79538;BME280;68989;52.032;5.152;2023-07-13T03:06:56;101493.72;;;24.51;43.19
79538;BME280;68989;52.032;5.152;2023-07-13T03:09:24;101499.15;;;24.49;43.17
79538;BME280;68989;52.032;5.152;2023-07-13T03:11:53;101503.32;;;24.48;43.19
79538;BME280;68989;52.032;5.152;2023-07-13T03:14:20;101502.85;;;24.46;43.24
79538;BME280;68989;52.032;5.152;2023-07-13T03:16:48;101500.99;;;24.44;43.31
79538;BME280;68989;52.032;5.152;2023-07-13T03:19:15;101496.76;;;24.42;43.36
79538;BME280;68989;52.032;5.152;2023-07-13T03:21:43;101495.71;;;24.41;43.37
79538;BME280;68989;52.032;5.152;2023-07-13T03:24:10;101496.76;;;24.39;43.43
79538;BME280;68989;52.032;5.152;2023-07-13T03:26:38;101501.19;;;24.37;43.39
79538;BME280;68989;52.032;5.152;2023-07-13T03:29:06;101505.48;;;24.35;43.53
79538;BME280;68989;52.032;5.152;2023-07-13T03:31:36;101506.40;;;24.33;43.62
79538;BME280;68989;52.032;5.152;2023-07-13T03:34:04;101506.49;;;24.32;43.68
79538;BME280;68989;52.032;5.152;2023-07-13T03:36:32;101508.37;;;24.31;43.96
79538;BME280;68989;52.032;5.152;2023-07-13T03:39:01;101512.37;;;24.29;43.84
79538;BME280;68989;52.032;5.152;2023-07-13T03:41:28;101513.00;;;24.28;43.80
79538;BME280;68989;52.032;5.152;2023-07-13T03:43:56;101513.95;;;24.27;43.78
79538;BME280;68989;52.032;5.152;2023-07-13T03:46:24;101515.14;;;24.26;43.78
79538;BME280;68989;52.032;5.152;2023-07-13T03:48:51;101513.09;;;24.24;43.77
79538;BME280;68989;52.032;5.152;2023-07-13T03:51:20;101515.78;;;24.23;43.83
79538;BME280;68989;52.032;5.152;2023-07-13T03:53:48;101517.60;;;24.22;43.89
79538;BME280;68989;52.032;5.152;2023-07-13T03:56:16;101522.85;;;24.21;43.90
79538;BME280;68989;52.032;5.152;2023-07-13T03:58:46;101526.82;;;24.20;43.94
79538;BME280;68989;52.032;5.152;2023-07-13T04:01:15;101526.99;;;24.19;43.90
79538;BME280;68989;52.032;5.152;2023-07-13T04:03:42;101531.21;;;24.18;44.01
79538;BME280;68989;52.032;5.152;2023-07-13T04:06:14;101533.06;;;24.17;44.08
79538;BME280;68989;52.032;5.152;2023-07-13T04:08:42;101537.09;;;24.16;44.17
79538;BME280;68989;52.032;5.152;2023-07-13T04:11:09;101536.27;;;24.16;44.16
79538;BME280;68989;52.032;5.152;2023-07-13T04:13:36;101535.95;;;24.15;44.29
79538;BME280;68989;52.032;5.152;2023-07-13T04:16:03;101543.62;;;24.13;44.32
79538;BME280;68989;52.032;5.152;2023-07-13T04:18:30;101544.04;;;24.12;44.32
79538;BME280;68989;52.032;5.152;2023-07-13T04:20:57;101547.61;;;24.12;44.35
79538;BME280;68989;52.032;5.152;2023-07-13T04:23:24;101547.72;;;24.12;44.39
79538;BME280;68989;52.032;5.152;2023-07-13T04:25:52;101548.32;;;24.12;44.45
79538;BME280;68989;52.032;5.152;2023-07-13T04:28:21;101552.77;;;24.12;44.45
79538;BME280;68989;52.032;5.152;2023-07-13T04:30:49;101554.41;;;24.12;44.48
79538;BME280;68989;52.032;5.152;2023-07-13T04:33:17;101557.30;;;24.12;44.47
79538;BME280;68989;52.032;5.152;2023-07-13T04:35:44;101559.90;;;24.13;44.49
79538;BME280;68989;52.032;5.152;2023-07-13T04:38:12;101558.81;;;24.12;44.65
79538;BME280;68989;52.032;5.152;2023-07-13T04:40:38;101557.78;;;24.12;44.57
79538;BME280;68989;52.032;5.152;2023-07-13T04:43:05;101556.92;;;24.14;44.57
79538;BME280;68989;52.032;5.152;2023-07-13T04:45:32;101561.36;;;24.15;44.62
79538;BME280;68989;52.032;5.152;2023-07-13T04:47:59;101563.65;;;24.19;44.71
79538;BME280;68989;52.032;5.152;2023-07-13T04:50:26;101566.92;;;24.21;44.78
79538;BME280;68989;52.032;5.152;2023-07-13T04:52:53;101567.34;;;24.24;44.73
79538;BME280;68989;52.032;5.152;2023-07-13T04:55:21;101565.85;;;24.26;44.79
79538;BME280;68989;52.032;5.152;2023-07-13T04:57:49;101563.37;;;24.28;44.83
79538;BME280;68989;52.032;5.152;2023-07-13T05:00:17;101563.29;;;24.30;45.15
79538;BME280;68989;52.032;5.152;2023-07-13T05:02:45;101564.12;;;24.32;45.45
79538;BME280;68989;52.032;5.152;2023-07-13T05:05:12;101567.06;;;24.35;45.35
79538;BME280;68989;52.032;5.152;2023-07-13T05:07:40;101567.05;;;24.38;45.31
79538;BME280;68989;52.032;5.152;2023-07-13T05:10:08;101569.75;;;24.41;45.36
79538;BME280;68989;52.032;5.152;2023-07-13T05:12:36;101572.29;;;24.45;45.34
79538;BME280;68989;52.032;5.152;2023-07-13T05:15:03;101574.44;;;24.49;45.19
79538;BME280;68989;52.032;5.152;2023-07-13T05:17:30;101575.24;;;24.53;45.20
79538;BME280;68989;52.032;5.152;2023-07-13T05:19:58;101580.41;;;24.56;45.19
79538;BME280;68989;52.032;5.152;2023-07-13T05:22:25;101582.21;;;24.60;45.22
79538;BME280;68989;52.032;5.152;2023-07-13T05:24:53;101577.59;;;24.64;45.17
79538;BME280;68989;52.032;5.152;2023-07-13T05:27:20;101582.31;;;24.69;45.18
79538;BME280;68989;52.032;5.152;2023-07-13T05:29:48;101582.63;;;24.72;45.14
79538;BME280;68989;52.032;5.152;2023-07-13T05:32:16;101584.65;;;24.76;45.04
79538;BME280;68989;52.032;5.152;2023-07-13T05:34:44;101583.64;;;24.81;45.09
79538;BME280;68989;52.032;5.152;2023-07-13T05:37:10;101590.00;;;24.85;45.17
79538;BME280;68989;52.032;5.152;2023-07-13T05:39:38;101593.00;;;24.89;45.27
79538;BME280;68989;52.032;5.152;2023-07-13T05:42:06;101592.33;;;24.94;45.22
79538;BME280;68989;52.032;5.152;2023-07-13T05:44:33;101593.80;;;25.01;45.08
79538;BME280;68989;52.032;5.152;2023-07-13T05:47:00;101600.54;;;25.07;44.97
79538;BME280;68989;52.032;5.152;2023-07-13T05:49:29;101603.81;;;25.14;44.99
79538;BME280;68989;52.032;5.152;2023-07-13T05:51:56;101608.59;;;25.20;44.97
79538;BME280;68989;52.032;5.152;2023-07-13T05:54:23;101600.33;;;25.25;45.16
79538;BME280;68989;52.032;5.152;2023-07-13T05:56:51;101608.88;;;25.35;45.34
79538;BME280;68989;52.032;5.152;2023-07-13T05:59:18;101613.28;;;25.42;45.30
79538;BME280;68989;52.032;5.152;2023-07-13T06:01:46;101611.80;;;25.50;45.34
79538;BME280;68989;52.032;5.152;2023-07-13T06:04:13;101613.40;;;25.59;45.25
79538;BME280;68989;52.032;5.152;2023-07-13T06:06:40;101619.75;;;25.67;44.96
79538;BME280;68989;52.032;5.152;2023-07-13T06:09:07;101623.37;;;25.73;45.15
79538;BME280;68989;52.032;5.152;2023-07-13T06:11:34;101629.60;;;25.78;45.05
79538;BME280;68989;52.032;5.152;2023-07-13T06:14:00;101630.23;;;25.84;45.21
79538;BME280;68989;52.032;5.152;2023-07-13T06:16:28;101631.72;;;25.89;45.69
79538;BME280;68989;52.032;5.152;2023-07-13T06:18:54;101631.84;;;25.92;44.94
79538;BME280;68989;52.032;5.152;2023-07-13T06:21:23;101637.29;;;25.97;44.85
79538;BME280;68989;52.032;5.152;2023-07-13T06:23:51;101634.11;;;26.00;44.99
79538;BME280;68989;52.032;5.152;2023-07-13T06:26:20;101639.42;;;26.03;44.90
79538;BME280;68989;52.032;5.152;2023-07-13T06:28:47;101640.72;;;26.07;44.76
79538;BME280;68989;52.032;5.152;2023-07-13T06:31:15;101646.44;;;26.14;44.84
79538;BME280;68989;52.032;5.152;2023-07-13T06:33:42;101645.51;;;26.23;44.37
79538;BME280;68989;52.032;5.152;2023-07-13T06:36:10;101641.45;;;26.36;44.44
79538;BME280;68989;52.032;5.152;2023-07-13T06:38:38;101638.38;;;26.43;43.96
79538;BME280;68989;52.032;5.152;2023-07-13T06:41:07;101638.58;;;26.51;43.93
79538;BME280;68989;52.032;5.152;2023-07-13T06:43:34;101640.23;;;26.56;44.31
79538;BME280;68989;52.032;5.152;2023-07-13T06:46:01;101650.89;;;26.64;43.96
79538;BME280;68989;52.032;5.152;2023-07-13T06:48:28;101649.97;;;26.74;43.56
79538;BME280;68989;52.032;5.152;2023-07-13T06:50:56;101651.95;;;26.87;43.87
79538;BME280;68989;52.032;5.152;2023-07-13T06:53:23;101654.16;;;27.02;44.19
79538;BME280;68989;52.032;5.152;2023-07-13T06:55:51;101658.98;;;27.15;43.00
79538;BME280;68989;52.032;5.152;2023-07-13T06:58:19;101666.12;;;27.18;43.19
79538;BME280;68989;52.032;5.152;2023-07-13T07:00:49;101667.67;;;27.24;42.78
79538;BME280;68989;52.032;5.152;2023-07-13T07:03:17;101667.85;;;27.29;42.62
79538;BME280;68989;52.032;5.152;2023-07-13T07:05:43;101668.86;;;27.32;42.66
79538;BME280;68989;52.032;5.152;2023-07-13T07:08:11;101671.47;;;27.33;42.32
79538;BME280;68989;52.032;5.152;2023-07-13T07:10:39;101670.13;;;27.31;42.54
79538;BME280;68989;52.032;5.152;2023-07-13T07:13:07;101665.36;;;27.27;42.68
79538;BME280;68989;52.032;5.152;2023-07-13T07:15:34;101669.71;;;27.24;42.53
79538;BME280;68989;52.032;5.152;2023-07-13T07:18:02;101671.38;;;27.23;42.47
79538;BME280;68989;52.032;5.152;2023-07-13T07:20:29;101673.41;;;27.21;42.59
79538;BME280;68989;52.032;5.152;2023-07-13T07:22:57;101674.11;;;27.21;42.81
79538;BME280;68989;52.032;5.152;2023-07-13T07:25:24;101675.44;;;27.20;42.95
79538;BME280;68989;52.032;5.152;2023-07-13T07:27:51;101676.68;;;27.19;42.90
79538;BME280;68989;52.032;5.152;2023-07-13T07:30:19;101672.83;;;27.18;43.11
79538;BME280;68989;52.032;5.152;2023-07-13T07:32:46;101675.89;;;27.16;43.18
79538;BME280;68989;52.032;5.152;2023-07-13T07:35:13;101677.64;;;27.16;43.37
79538;BME280;68989;52.032;5.152;2023-07-13T07:37:39;101671.63;;;27.15;43.35
79538;BME280;68989;52.032;5.152;2023-07-13T07:40:08;101677.14;;;27.16;43.06
79538;BME280;68989;52.032;5.152;2023-07-13T07:42:35;101677.29;;;27.20;43.30
79538;BME280;68989;52.032;5.152;2023-07-13T07:45:03;101679.03;;;27.22;43.60
79538;BME280;68989;52.032;5.152;2023-07-13T07:47:30;101677.19;;;27.25;43.41
79538;BME280;68989;52.032;5.152;2023-07-13T07:49:57;101673.05;;;27.28;43.40
79538;BME280;68989;52.032;5.152;2023-07-13T07:52:24;101675.25;;;27.32;43.22
79538;BME280;68989;52.032;5.152;2023-07-13T07:54:52;101673.85;;;27.35;43.40
79538;BME280;68989;52.032;5.152;2023-07-13T07:57:20;101676.78;;;27.37;43.27
79538;BME280;68989;52.032;5.152;2023-07-13T07:59:47;101683.01;;;27.39;43.04
79538;BME280;68989;52.032;5.152;2023-07-13T08:02:14;101682.07;;;27.41;42.97
79538;BME280;68989;52.032;5.152;2023-07-13T08:04:41;101676.90;;;27.45;42.91
79538;BME280;68989;52.032;5.152;2023-07-13T08:07:09;101672.50;;;27.53;42.53
79538;BME280;68989;52.032;5.152;2023-07-13T08:09:36;101671.72;;;27.68;42.75
79538;BME280;68989;52.032;5.152;2023-07-13T08:12:04;101676.85;;;27.89;42.33
79538;BME280;68989;52.032;5.152;2023-07-13T08:14:33;101670.36;;;28.12;41.74
79538;BME280;68989;52.032;5.152;2023-07-13T08:17:00;101678.67;;;28.32;41.36
79538;BME280;68989;52.032;5.152;2023-07-13T08:19:27;101681.50;;;28.45;40.72
79538;BME280;68989;52.032;5.152;2023-07-13T08:21:55;101685.68;;;28.54;39.94
79538;BME280;68989;52.032;5.152;2023-07-13T08:24:24;101694.00;;;28.59;39.79
79538;BME280;68989;52.032;5.152;2023-07-13T08:26:51;101696.10;;;28.59;39.81
79538;BME280;68989;52.032;5.152;2023-07-13T08:29:20;101695.58;;;28.55;39.82
79538;BME280;68989;52.032;5.152;2023-07-13T08:31:47;101690.13;;;28.50;39.93
79538;BME280;68989;52.032;5.152;2023-07-13T08:34:13;101689.88;;;28.42;40.13
79538;BME280;68989;52.032;5.152;2023-07-13T08:36:40;101691.73;;;28.30;40.23
79538;BME280;68989;52.032;5.152;2023-07-13T08:39:08;101691.06;;;28.18;40.58
79538;BME280;68989;52.032;5.152;2023-07-13T08:41:35;101701.23;;;28.05;41.08
79538;BME280;68989;52.032;5.152;2023-07-13T08:44:07;101698.62;;;27.90;41.17
79538;BME280;68989;52.032;5.152;2023-07-13T08:46:42;101696.94;;;27.79;41.48
79538;BME280;68989;52.032;5.152;2023-07-13T08:49:16;101695.48;;;27.70;41.88
79538;BME280;68989;52.032;5.152;2023-07-13T08:51:45;101696.14;;;27.64;41.86
79538;BME280;68989;52.032;5.152;2023-07-13T08:54:21;101693.02;;;27.63;41.99
79538;BME280;68989;52.032;5.152;2023-07-13T08:56:50;101697.36;;;27.73;41.82
79538;BME280;68989;52.032;5.152;2023-07-13T08:59:24;101692.30;;;27.94;41.37
79538;BME280;68989;52.032;5.152;2023-07-13T09:02:03;101683.02;;;28.19;41.60
79538;BME280;68989;52.032;5.152;2023-07-13T09:04:36;101683.30;;;28.50;40.90
79538;BME280;68989;52.032;5.152;2023-07-13T09:07:13;101681.43;;;28.78;40.76
79538;BME280;68989;52.032;5.152;2023-07-13T09:09:52;101676.68;;;29.11;40.22
79538;BME280;68989;52.032;5.152;2023-07-13T09:12:30;101678.23;;;29.41;39.91
79538;BME280;68989;52.032;5.152;2023-07-13T09:15:02;101679.61;;;29.67;39.25
79538;BME280;68989;52.032;5.152;2023-07-13T09:17:37;101688.72;;;29.92;38.93
79538;BME280;68989;52.032;5.152;2023-07-13T09:20:21;101691.54;;;30.14;38.07
79538;BME280;68989;52.032;5.152;2023-07-13T09:22:51;101686.40;;;30.31;37.60
79538;BME280;68989;52.032;5.152;2023-07-13T09:25:24;101691.95;;;30.41;37.08
79538;BME280;68989;52.032;5.152;2023-07-13T09:27:58;101692.65;;;30.56;37.21
79538;BME280;68989;52.032;5.152;2023-07-13T09:30:34;101690.84;;;30.76;36.72
79538;BME280;68989;52.032;5.152;2023-07-13T09:33:03;101698.00;;;30.99;36.00
79538;BME280;68989;52.032;5.152;2023-07-13T09:35:31;101704.30;;;31.15;35.45
79538;BME280;68989;52.032;5.152;2023-07-13T09:38:03;101698.79;;;31.22;35.04
79538;BME280;68989;52.032;5.152;2023-07-13T09:40:41;101700.21;;;31.24;34.81
79538;BME280;68989;52.032;5.152;2023-07-13T09:43:13;101704.86;;;31.15;34.92
79538;BME280;68989;52.032;5.152;2023-07-13T09:45:41;101703.10;;;31.03;35.32
79538;BME280;68989;52.032;5.152;2023-07-13T09:48:13;101706.82;;;30.84;35.61
79538;BME280;68989;52.032;5.152;2023-07-13T09:50:41;101711.45;;;30.62;36.03
79538;BME280;68989;52.032;5.152;2023-07-13T09:53:13;101720.39;;;30.39;36.56
79538;BME280;68989;52.032;5.152;2023-07-13T09:55:42;101715.96;;;30.13;37.24
79538;BME280;68989;52.032;5.152;2023-07-13T09:58:12;101714.07;;;29.91;37.87
79538;BME280;68989;52.032;5.152;2023-07-13T10:00:41;101714.40;;;29.77;38.56
79538;BME280;68989;52.032;5.152;2023-07-13T10:03:17;101711.67;;;29.73;39.24
79538;BME280;68989;52.032;5.152;2023-07-13T10:05:47;101713.07;;;29.78;39.86
79538;BME280;68989;52.032;5.152;2023-07-13T10:08:19;101708.61;;;29.86;39.94
79538;BME280;68989;52.032;5.152;2023-07-13T10:10:47;101716.12;;;29.98;39.58
79538;BME280;68989;52.032;5.152;2023-07-13T10:13:29;101722.62;;;30.06;38.43
79538;BME280;68989;52.032;5.152;2023-07-13T10:15:57;101728.68;;;30.08;37.39
79538;BME280;68989;52.032;5.152;2023-07-13T10:18:25;101736.91;;;30.12;36.84
79538;BME280;68989;52.032;5.152;2023-07-13T10:21:00;101742.24;;;30.18;36.61
79538;BME280;68989;52.032;5.152;2023-07-13T10:23:35;101748.09;;;30.20;36.42
79538;BME280;68989;52.032;5.152;2023-07-13T10:26:03;101747.57;;;30.21;36.23
79538;BME280;68989;52.032;5.152;2023-07-13T10:28:36;101747.96;;;30.19;36.07
79538;BME280;68989;52.032;5.152;2023-07-13T10:31:07;101752.69;;;30.19;36.24
79538;BME280;68989;52.032;5.152;2023-07-13T10:33:38;101747.55;;;30.19;36.25
79538;BME280;68989;52.032;5.152;2023-07-13T10:36:13;101749.17;;;30.21;36.23
79538;BME280;68989;52.032;5.152;2023-07-13T10:38:43;101749.23;;;30.32;36.14
79538;BME280;68989;52.032;5.152;2023-07-13T10:41:14;101745.02;;;30.50;35.92
79538;BME280;68989;52.032;5.152;2023-07-13T10:43:45;101744.61;;;30.74;35.58
79538;BME280;68989;52.032;5.152;2023-07-13T10:46:17;101738.27;;;31.00;35.30
79538;BME280;68989;52.032;5.152;2023-07-13T10:48:48;101745.82;;;31.27;34.78
79538;BME280;68989;52.032;5.152;2023-07-13T10:51:19;101753.31;;;31.56;34.63
79538;BME280;68989;52.032;5.152;2023-07-13T10:53:47;101749.60;;;31.86;34.38
79538;BME280;68989;52.032;5.152;2023-07-13T10:56:40;101756.44;;;32.15;34.09
79538;BME280;68989;52.032;5.152;2023-07-13T10:59:12;101755.83;;;32.41;33.77
79538;BME280;68989;52.032;5.152;2023-07-13T11:01:50;101750.22;;;32.68;33.22
79538;BME280;68989;52.032;5.152;2023-07-13T11:04:20;101752.66;;;32.95;32.61
79538;BME280;68989;52.032;5.152;2023-07-13T11:06:50;101746.47;;;33.19;32.24
79538;BME280;68989;52.032;5.152;2023-07-13T11:09:35;101754.19;;;33.39;32.29
79538;BME280;68989;52.032;5.152;2023-07-13T11:12:08;101754.37;;;33.67;31.36
79538;BME280;68989;52.032;5.152;2023-07-13T11:14:37;101739.40;;;33.94;30.49
79538;BME280;68989;52.032;5.152;2023-07-13T11:17:35;101748.08;;;34.18;30.45
79538;BME280;68989;52.032;5.152;2023-07-13T11:20:22;101749.51;;;34.47;30.07
79538;BME280;68989;52.032;5.152;2023-07-13T11:22:51;101748.04;;;34.78;29.91
79538;BME280;68989;52.032;5.152;2023-07-13T11:25:28;101746.73;;;35.06;29.50
79538;BME280;68989;52.032;5.152;2023-07-13T11:28:11;101738.78;;;35.29;28.98
79538;BME280;68989;52.032;5.152;2023-07-13T11:30:42;101750.26;;;35.50;28.41
79538;BME280;68989;52.032;5.152;2023-07-13T11:33:14;101749.58;;;35.64;28.02
79538;BME280;68989;52.032;5.152;2023-07-13T11:35:48;101752.08;;;35.68;27.91
79538;BME280;68989;52.032;5.152;2023-07-13T11:38:18;101754.16;;;35.63;27.79
79538;BME280;68989;52.032;5.152;2023-07-13T11:40:48;101751.63;;;35.34;28.08
79538;BME280;68989;52.032;5.152;2023-07-13T11:43:17;101750.91;;;35.15;28.02
79538;BME280;68989;52.032;5.152;2023-07-13T11:45:44;101745.46;;;35.02;28.19
79538;BME280;68989;52.032;5.152;2023-07-13T11:48:21;101748.65;;;34.91;28.15
79538;BME280;68989;52.032;5.152;2023-07-13T11:50:53;101750.65;;;34.83;28.56
79538;BME280;68989;52.032;5.152;2023-07-13T11:53:21;101752.39;;;34.80;28.51
79538;BME280;68989;52.032;5.152;2023-07-13T11:55:48;101754.94;;;34.79;28.30
79538;BME280;68989;52.032;5.152;2023-07-13T11:58:21;101757.57;;;34.85;28.69
79538;BME280;68989;52.032;5.152;2023-07-13T12:00:50;101758.35;;;35.05;28.90
79538;BME280;68989;52.032;5.152;2023-07-13T12:03:21;101756.28;;;35.25;28.00
79538;BME280;68989;52.032;5.152;2023-07-13T12:05:58;101752.72;;;35.49;27.79
79538;BME280;68989;52.032;5.152;2023-07-13T12:08:26;101752.59;;;35.75;26.67
79538;BME280;68989;52.032;5.152;2023-07-13T12:11:03;101759.98;;;36.01;26.76
79538;BME280;68989;52.032;5.152;2023-07-13T12:13:36;101747.75;;;36.29;26.61
79538;BME280;68989;52.032;5.152;2023-07-13T12:16:12;101748.49;;;36.56;25.79
79538;BME280;68989;52.032;5.152;2023-07-13T12:18:43;101758.08;;;36.74;24.93
79538;BME280;68989;52.032;5.152;2023-07-13T12:21:13;101757.37;;;36.80;24.71
79538;BME280;68989;52.032;5.152;2023-07-13T12:23:43;101751.76;;;36.76;24.51
79538;BME280;68989;52.032;5.152;2023-07-13T12:26:11;101752.76;;;36.70;24.47
79538;BME280;68989;52.032;5.152;2023-07-13T12:28:45;101757.42;;;36.60;24.66
79538;BME280;68989;52.032;5.152;2023-07-13T12:31:24;101763.08;;;36.46;24.67
79538;BME280;68989;52.032;5.152;2023-07-13T12:33:57;101769.39;;;36.24;24.57
79538;BME280;68989;52.032;5.152;2023-07-13T12:36:25;101770.62;;;35.99;24.67
79538;BME280;68989;52.032;5.152;2023-07-13T12:38:53;101768.67;;;35.74;24.91
79538;BME280;68989;52.032;5.152;2023-07-13T12:41:20;101772.72;;;35.49;25.56
79538;BME280;68989;52.032;5.152;2023-07-13T12:43:48;101764.66;;;35.25;25.67
79538;BME280;68989;52.032;5.152;2023-07-13T12:46:18;101759.74;;;35.10;25.92
79538;BME280;68989;52.032;5.152;2023-07-13T12:48:49;101758.61;;;35.07;26.20
79538;BME280;68989;52.032;5.152;2023-07-13T12:51:20;101760.09;;;35.17;26.51
79538;BME280;68989;52.032;5.152;2023-07-13T12:53:51;101752.72;;;35.33;25.92
79538;BME280;68989;52.032;5.152;2023-07-13T12:56:23;101762.56;;;35.52;25.81
79538;BME280;68989;52.032;5.152;2023-07-13T12:58:57;101754.76;;;35.68;25.64
79538;BME280;68989;52.032;5.152;2023-07-13T13:01:27;101761.46;;;35.83;25.48